Terminal Aerodrome Forecast
Issued by NWS Portland, ME

Home | Current Version | Previous Version | Text Only | Print | Product List | Glossary On
Versions: 1 2 3 4 5 6 7 8 9 10 11 12 13 14 15 16 17 18 19 20 21 22 23 24 25 26
000
FTUS41 KGYX 270902 AAA
TAFPWM
TAF AMD
KPWM 270902Z 2709/2806 01025G33KT 1/2SM SN BLSN OVC009
     FM271200 01029G40KT 1/4SM +SN BLSN VV001
     FM271900 01030G45KT 1SM -SN BLSN OVC003=

USA.gov is the U.S. government's official web portal to all federal, state and local government web resources and services.